createdAt,value
2022-09-29T00:01:52.572Z,14.10
2022-09-29T00:04:42.500Z,13.60
2022-09-29T00:07:32.737Z,14.40
2022-09-29T00:10:23.237Z,14.70
2022-09-29T00:13:13.147Z,13.90
2022-09-29T00:16:03.859Z,14.80
2022-09-29T00:18:56.704Z,15.00
2022-09-29T00:21:46.625Z,14.50
2022-09-29T00:24:36.761Z,15.10
2022-09-29T00:27:26.657Z,15.30
2022-09-29T00:30:16.871Z,14.60
2022-09-29T00:33:06.769Z,15.60
2022-09-29T00:36:04.088Z,14.40
2022-09-29T00:38:54.264Z,15.00
2022-09-29T00:41:44.201Z,15.80
2022-09-29T00:45:06.318Z,14.80
2022-09-29T00:48:08.498Z,15.40
2022-09-29T00:50:58.392Z,15.60
2022-09-29T00:53:48.262Z,15.90
2022-09-29T00:56:39.091Z,15.90
2022-09-29T00:59:32.726Z,15.70
2022-09-29T01:02:22.664Z,16.80
2022-09-29T01:05:15.574Z,16.40
2022-09-29T01:08:11.122Z,16.10
2022-09-29T01:11:01.418Z,16.10
2022-09-29T01:13:51.419Z,16.90
2022-09-29T01:16:42.836Z,16.10
2022-09-29T01:19:41.148Z,17.30
2022-09-29T01:22:52.638Z,17.70
2022-09-29T01:25:59.533Z,17.30
2022-09-29T01:29:04.168Z,17.30
2022-09-29T01:31:57.969Z,17.30
2022-09-29T01:34:52.936Z,17.50
2022-09-29T01:37:53.791Z,17.00
2022-09-29T01:40:50.960Z,17.40
2022-09-29T01:43:45.839Z,18.10
2022-09-29T01:46:37.739Z,17.70
2022-09-29T01:49:29.215Z,17.50
2022-09-29T01:52:20.687Z,17.50
2022-09-29T01:55:12.347Z,17.30
2022-09-29T01:58:04.750Z,18.70
2022-09-29T02:00:58.341Z,17.90
2022-09-29T02:03:50.563Z,18.70
2022-09-29T02:06:46.902Z,18.00
2022-09-29T02:09:40.111Z,18.00
2022-09-29T02:12:32.420Z,17.00
2022-09-29T02:15:26.339Z,19.00
2022-09-29T02:18:20.471Z,18.60
2022-09-29T02:21:10.417Z,18.10
2022-09-29T02:24:01.039Z,18.50
2022-09-29T02:26:51.051Z,18.30
2022-09-29T02:29:40.973Z,18.20
2022-09-29T02:32:31.634Z,17.90
2022-09-29T02:35:21.925Z,18.40
2022-09-29T02:38:15.186Z,18.50
2022-09-29T02:41:11.301Z,17.70
2022-09-29T02:47:29.410Z,17.00
2022-09-29T02:50:31.369Z,17.60
2022-09-29T02:53:32.811Z,17.70
2022-09-29T02:56:28.984Z,17.60
2022-09-29T02:59:24.465Z,16.60
2022-09-29T03:02:16.224Z,17.40
2022-09-29T03:05:09.359Z,18.30
2022-09-29T03:07:59.848Z,17.40
2022-09-29T03:10:49.843Z,17.10
2022-09-29T03:13:40.803Z,16.90
2022-09-29T03:16:30.766Z,16.80
2022-09-29T03:19:20.657Z,16.80
2022-09-29T03:22:10.567Z,15.80
2022-09-29T03:25:00.557Z,17.10
2022-09-29T03:27:50.499Z,16.80
2022-09-29T03:30:40.376Z,16.10
2022-09-29T03:33:30.247Z,16.30
2022-09-29T03:36:20.273Z,16.10
2022-09-29T03:39:10.216Z,16.40
2022-09-29T03:42:00.693Z,16.20
2022-09-29T03:44:50.634Z,15.70
2022-09-29T03:47:40.509Z,15.50
2022-09-29T03:50:30.412Z,15.20
2022-09-29T03:53:20.562Z,15.20
2022-09-29T03:56:10.621Z,14.80
2022-09-29T03:59:01.029Z,15.40
2022-09-29T04:01:51.094Z,14.70
2022-09-29T04:04:41.089Z,14.60
2022-09-29T04:07:31.671Z,14.50
2022-09-29T04:10:21.798Z,14.30
2022-09-29T04:13:11.781Z,13.50
2022-09-29T04:16:03.711Z,14.90
2022-09-29T04:18:53.687Z,14.30
2022-09-29T04:21:43.588Z,13.60
2022-09-29T04:24:33.499Z,14.40
2022-09-29T04:27:23.648Z,14.30
2022-09-29T04:30:14.749Z,13.30
2022-09-29T04:33:04.831Z,14.20
2022-09-29T04:35:54.751Z,13.70
2022-09-29T04:38:45.026Z,12.90
2022-09-29T04:41:36.432Z,13.10
2022-09-29T04:44:26.712Z,13.70
2022-09-29T04:47:16.885Z,13.90
2022-09-29T04:50:09.505Z,13.80
2022-09-29T04:52:59.557Z,14.10
2022-09-29T04:55:49.560Z,15.50
2022-09-29T04:58:39.686Z,15.70
2022-09-29T05:01:29.837Z,14.60
2022-09-29T05:04:19.752Z,15.40
2022-09-29T05:07:09.808Z,15.00
2022-09-29T05:10:00.092Z,15.10
2022-09-29T05:12:51.468Z,14.60
2022-09-29T05:15:41.492Z,15.70
2022-09-29T05:18:31.738Z,15.80
2022-09-29T05:21:29.527Z,16.80
2022-09-29T05:24:19.713Z,15.50
2022-09-29T05:27:09.741Z,16.10
2022-09-29T05:29:59.591Z,16.00
2022-09-29T05:32:50.099Z,16.40
2022-09-29T05:35:40.004Z,17.50
2022-09-29T05:38:29.909Z,18.00
2022-09-29T05:41:22.812Z,17.70
2022-09-29T05:44:12.837Z,17.60
2022-09-29T05:47:02.740Z,17.70
2022-09-29T05:49:52.644Z,17.20
2022-09-29T05:52:42.559Z,17.80
2022-09-29T05:55:32.680Z,18.40
2022-09-29T05:58:23.253Z,17.40
2022-09-29T06:01:15.129Z,17.70
2022-09-29T06:04:05.075Z,17.30
2022-09-29T06:06:56.797Z,17.10
2022-09-29T06:09:47.271Z,17.60
2022-09-29T06:12:38.220Z,17.60
2022-09-29T06:15:29.181Z,17.50
2022-09-29T06:18:19.194Z,17.40
2022-09-29T06:21:11.129Z,16.50
2022-09-29T06:24:01.645Z,17.90
2022-09-29T06:26:54.042Z,18.00
2022-09-29T06:29:43.959Z,17.00
2022-09-29T06:32:35.323Z,17.40
2022-09-29T06:35:44.104Z,17.40
2022-09-29T06:38:33.904Z,16.80
2022-09-29T06:41:23.920Z,17.90
2022-09-29T06:44:14.165Z,17.20
2022-09-29T06:47:04.249Z,17.70
2022-09-29T06:49:58.511Z,17.80
2022-09-29T06:53:05.202Z,16.30
2022-09-29T06:55:55.967Z,16.70
2022-09-29T06:58:46.108Z,16.60
2022-09-29T07:01:36.686Z,17.30
2022-09-29T07:04:26.890Z,15.80
2022-09-29T07:07:16.938Z,15.60
2022-09-29T07:10:09.419Z,16.60
2022-09-29T07:12:59.428Z,17.00
2022-09-29T07:15:49.711Z,16.50
2022-09-29T07:18:41.484Z,15.30
2022-09-29T07:21:31.542Z,14.70
2022-09-29T07:24:23.352Z,12.70
2022-09-29T07:27:13.431Z,10.60
2022-09-29T07:30:05.229Z,9.40
2022-09-29T07:33:01.099Z,8.60
2022-09-29T07:35:54.760Z,10.10
2022-09-29T07:38:46.989Z,11.80
2022-09-29T07:41:37.299Z,11.20
2022-09-29T07:44:28.787Z,9.90
2022-09-29T07:47:20.305Z,10.20
2022-09-29T07:50:10.830Z,8.90
2022-09-29T07:53:01.425Z,8.50
2022-09-29T07:55:51.514Z,8.90
2022-09-29T07:58:41.958Z,9.00
2022-09-29T08:01:32.180Z,8.50
2022-09-29T08:04:22.719Z,9.00
2022-09-29T08:07:12.699Z,8.70
2022-09-29T08:10:14.191Z,8.20
2022-09-29T08:13:07.242Z,8.50
2022-09-29T08:15:59.960Z,8.10
2022-09-29T08:18:50.169Z,8.30
2022-09-29T08:21:40.125Z,8.60
2022-09-29T08:24:30.603Z,7.70
2022-09-29T08:27:20.668Z,8.10
2022-09-29T08:30:13.432Z,7.70
2022-09-29T08:33:03.760Z,7.60
2022-09-29T08:35:58.084Z,8.00
2022-09-29T08:38:50.129Z,7.90
2022-09-29T08:41:56.186Z,7.50
2022-09-29T08:44:50.175Z,7.80
2022-09-29T08:47:47.321Z,8.20
2022-09-29T08:50:42.217Z,7.40
2022-09-29T08:53:35.043Z,7.70
2022-09-29T08:56:25.523Z,7.50
2022-09-29T08:59:15.489Z,7.20
2022-09-29T09:02:29.275Z,7.40
2022-09-29T09:05:28.270Z,7.50
2022-09-29T09:08:37.891Z,7.40
2022-09-29T09:11:38.525Z,7.70
2022-09-29T09:14:44.731Z,7.20
2022-09-29T09:17:53.820Z,7.20
2022-09-29T09:20:49.392Z,8.00
2022-09-29T09:23:53.354Z,7.80
2022-09-29T09:26:46.645Z,7.70
2022-09-29T09:29:39.504Z,8.30
2022-09-29T09:32:31.742Z,8.00
2022-09-29T09:35:32.051Z,8.00
2022-09-29T09:38:23.380Z,7.70
2022-09-29T09:41:16.032Z,9.10
2022-09-29T09:44:07.692Z,8.40
2022-09-29T09:46:59.563Z,7.70
2022-09-29T09:49:51.647Z,7.50
2022-09-29T09:52:45.123Z,7.40
2022-09-29T09:55:42.573Z,6.40
2022-09-29T09:58:50.107Z,6.00
2022-09-29T10:01:40.083Z,5.50
2022-09-29T10:04:30.680Z,6.10
2022-09-29T10:07:21.102Z,6.20
2022-09-29T10:10:18.349Z,6.70
2022-09-29T10:13:11.069Z,6.40
2022-09-29T10:16:05.686Z,6.40
2022-09-29T10:18:55.814Z,6.60
2022-09-29T10:21:45.966Z,6.80
2022-09-29T10:24:36.050Z,6.90
2022-09-29T10:27:26.242Z,7.90
2022-09-29T10:30:21.182Z,7.60
2022-09-29T10:33:15.739Z,7.60
2022-09-29T10:36:09.197Z,8.30
2022-09-29T10:39:02.300Z,7.70
2022-09-29T10:41:53.456Z,8.10
2022-09-29T10:44:43.968Z,7.70
2022-09-29T10:47:34.239Z,7.80
2022-09-29T10:50:26.127Z,8.30
2022-09-29T10:53:26.525Z,7.90
2022-09-29T10:56:20.705Z,8.00
2022-09-29T10:59:12.722Z,8.30
2022-09-29T11:02:02.685Z,7.70
2022-09-29T11:04:52.833Z,7.90
2022-09-29T11:07:45.743Z,7.80
2022-09-29T11:10:36.794Z,8.30
2022-09-29T11:13:46.945Z,7.90
2022-09-29T11:16:37.762Z,7.90
2022-09-29T11:19:28.536Z,6.70
2022-09-29T11:22:57.589Z,5.30
2022-09-29T11:26:21.711Z,5.20
2022-09-29T11:29:29.641Z,4.40
2022-09-29T11:32:32.122Z,4.50
2022-09-29T11:35:36.125Z,4.40
2022-09-29T11:38:51.036Z,4.70
2022-09-29T11:42:07.829Z,4.60
2022-09-29T11:45:00.805Z,3.90
2022-09-29T11:48:43.462Z,3.80
2022-09-29T11:51:42.292Z,3.90
2022-09-29T11:54:51.227Z,3.80
2022-09-29T11:57:50.505Z,4.10
2022-09-29T12:00:51.433Z,3.90
2022-09-29T12:03:45.981Z,3.10
2022-09-29T12:06:57.772Z,3.10
2022-09-29T12:10:23.548Z,3.00
2022-09-29T12:13:25.168Z,3.10
2022-09-29T12:16:16.897Z,3.10
2022-09-29T12:19:10.510Z,3.00
2022-09-29T12:22:03.238Z,3.60
2022-09-29T12:24:55.139Z,3.20
2022-09-29T12:27:45.873Z,3.90
2022-09-29T12:30:43.363Z,3.50
2022-09-29T12:33:36.780Z,3.20
2022-09-29T12:36:45.044Z,3.30
2022-09-29T12:39:41.987Z,3.60
2022-09-29T12:42:42.925Z,3.60
2022-09-29T12:45:37.986Z,3.60
2022-09-29T12:48:34.127Z,3.40
2022-09-29T12:51:28.446Z,3.40
2022-09-29T12:54:22.309Z,3.90
2022-09-29T12:57:14.648Z,3.80
2022-09-29T13:00:08.725Z,3.90
2022-09-29T13:03:45.991Z,3.30
2022-09-29T13:06:52.555Z,3.40
2022-09-29T13:10:25.257Z,3.50
2022-09-29T13:14:05.635Z,3.70
2022-09-29T13:17:08.182Z,3.50
2022-09-29T13:20:35.247Z,3.80
2022-09-29T13:23:39.867Z,3.80
2022-09-29T13:26:42.656Z,3.60
2022-09-29T13:29:32.644Z,4.00
2022-09-29T13:32:23.342Z,3.50
2022-09-29T13:35:18.807Z,3.90
2022-09-29T13:38:13.819Z,3.30
2022-09-29T13:41:16.796Z,3.50
2022-09-29T13:44:25.118Z,3.60
2022-09-29T13:47:32.404Z,3.60
2022-09-29T13:50:45.028Z,4.20
2022-09-29T13:53:36.993Z,3.90
2022-09-29T13:56:26.940Z,3.40
2022-09-29T13:59:22.623Z,3.60
2022-09-29T14:02:27.826Z,3.40
2022-09-29T14:06:28.809Z,3.80
2022-09-29T14:09:18.345Z,3.80
2022-09-29T14:12:16.330Z,4.00
2022-09-29T14:15:08.959Z,4.00
2022-09-29T14:18:02.771Z,3.90
2022-09-29T14:21:03.556Z,4.10
2022-09-29T14:23:55.745Z,3.80
2022-09-29T14:26:50.719Z,4.00
2022-09-29T14:29:43.211Z,3.70
2022-09-29T14:32:41.553Z,3.90
2022-09-29T14:35:33.738Z,4.20
2022-09-29T14:38:25.980Z,4.20
2022-09-29T14:41:31.671Z,4.10
2022-09-29T14:44:23.694Z,4.40
2022-09-29T14:51:09.056Z,4.10
2022-09-29T14:54:04.029Z,4.60
2022-09-29T14:57:02.288Z,4.40
2022-09-29T15:00:03.654Z,4.40
2022-09-29T15:03:00.136Z,4.30
2022-09-29T15:06:10.250Z,4.30
2022-09-29T15:09:01.944Z,4.40
2022-09-29T15:11:53.557Z,4.40
2022-09-29T15:14:43.591Z,4.30
2022-09-29T15:17:43.193Z,4.70
2022-09-29T15:20:34.697Z,4.70
2022-09-29T15:24:04.269Z,4.70
2022-09-29T15:26:54.412Z,4.90
2022-09-29T15:29:49.133Z,4.70
2022-09-29T15:32:39.028Z,4.30
2022-09-29T15:35:30.733Z,4.50
2022-09-29T15:38:32.398Z,4.80
2022-09-29T15:41:27.496Z,4.90
2022-09-29T15:44:21.647Z,4.80
2022-09-29T15:47:12.184Z,4.90
2022-09-29T15:50:04.426Z,5.00
2022-09-29T15:52:54.672Z,5.20
2022-09-29T15:55:44.664Z,5.50
2022-09-29T15:58:44.672Z,5.40
2022-09-29T16:01:34.671Z,5.50
2022-09-29T16:04:24.601Z,5.10
2022-09-29T16:07:23.048Z,5.50
2022-09-29T16:10:16.322Z,5.10
2022-09-29T16:13:08.128Z,5.30
2022-09-29T16:16:01.154Z,5.40
2022-09-29T16:18:52.404Z,5.60
2022-09-29T16:21:42.736Z,5.30
2022-09-29T16:24:35.156Z,5.50
2022-09-29T16:27:48.160Z,5.40
2022-09-29T16:30:38.500Z,5.40
2022-09-29T16:33:28.835Z,5.50
2022-09-29T16:36:20.813Z,5.40
2022-09-29T16:39:14.607Z,5.60
2022-09-29T16:42:08.610Z,5.30
2022-09-29T16:44:58.807Z,5.60
2022-09-29T16:47:51.036Z,5.70
2022-09-29T16:50:47.281Z,6.20
2022-09-29T16:53:37.467Z,6.00
2022-09-29T16:56:34.693Z,7.20
2022-09-29T16:59:24.719Z,9.80
2022-09-29T17:02:14.907Z,11.90
2022-09-29T17:05:06.561Z,12.00
2022-09-29T17:08:03.770Z,11.70
2022-09-29T17:10:56.285Z,12.40
2022-09-29T17:13:46.898Z,12.10
2022-09-29T17:16:38.589Z,12.80
2022-09-29T17:19:28.855Z,13.20
2022-09-29T17:22:30.193Z,13.20
2022-09-29T17:25:20.245Z,14.20
2022-09-29T17:28:15.715Z,14.00
2022-09-29T17:31:06.637Z,15.00
2022-09-29T17:33:57.207Z,13.50
2022-09-29T17:36:47.506Z,15.10
2022-09-29T17:39:37.926Z,14.00
2022-09-29T17:42:28.279Z,14.30
2022-09-29T17:45:19.336Z,13.70
2022-09-29T17:48:10.147Z,15.40
2022-09-29T17:51:03.385Z,14.10
2022-09-29T17:53:53.491Z,14.60
2022-09-29T17:56:43.763Z,13.10
2022-09-29T17:59:39.916Z,13.20
2022-09-29T18:02:30.090Z,12.70
2022-09-29T18:05:23.193Z,12.50
2022-09-29T18:08:15.464Z,11.30
2022-09-29T18:11:05.842Z,11.00
2022-09-29T18:13:55.996Z,11.10
2022-09-29T18:16:47.449Z,10.60
2022-09-29T18:19:39.433Z,10.40
2022-09-29T18:22:29.587Z,10.00
2022-09-29T18:25:19.729Z,10.50
2022-09-29T18:28:11.813Z,10.10
2022-09-29T18:31:12.623Z,9.50
2022-09-29T18:34:03.595Z,9.70
2022-09-29T18:36:53.617Z,10.10
2022-09-29T18:39:44.040Z,10.10
2022-09-29T18:42:34.345Z,9.80
2022-09-29T18:45:25.591Z,10.20
2022-09-29T18:48:16.012Z,10.60
2022-09-29T18:51:06.805Z,10.00
2022-09-29T18:53:58.693Z,10.40
2022-09-29T18:56:51.420Z,9.90
2022-09-29T18:59:44.462Z,9.70
2022-09-29T19:02:34.864Z,9.90
2022-09-29T19:05:28.575Z,11.80
2022-09-29T19:08:18.938Z,13.80
2022-09-29T19:11:18.736Z,14.40
2022-09-29T19:14:08.800Z,12.40
2022-09-29T19:16:59.002Z,10.80
2022-09-29T19:19:49.914Z,8.90
2022-09-29T19:22:41.985Z,8.50
2022-09-29T19:25:35.229Z,9.00
2022-09-29T19:28:26.591Z,9.10
2022-09-29T19:31:19.017Z,8.70
2022-09-29T19:34:09.333Z,9.80
2022-09-29T19:36:59.608Z,9.90
2022-09-29T19:39:49.585Z,10.50
2022-09-29T19:42:39.502Z,11.50
2022-09-29T19:45:29.456Z,11.90
2022-09-29T19:48:21.166Z,11.00
2022-09-29T19:51:30.466Z,10.20
2022-09-29T19:54:21.641Z,9.00
2022-09-29T19:57:15.473Z,9.70
2022-09-29T20:00:07.201Z,11.40
2022-09-29T20:03:02.408Z,10.50
2022-09-29T20:05:52.402Z,9.40
2022-09-29T20:08:42.472Z,9.40
2022-09-29T20:11:34.331Z,10.00
2022-09-29T20:14:24.627Z,9.20
2022-09-29T20:17:14.676Z,9.70
2022-09-29T20:20:06.878Z,9.10
2022-09-29T20:22:56.910Z,9.20
2022-09-29T20:25:46.808Z,9.60
2022-09-29T20:28:37.226Z,9.60
2022-09-29T20:31:29.070Z,9.60
2022-09-29T20:34:20.477Z,9.80
2022-09-29T20:37:12.058Z,9.80
2022-09-29T20:40:02.957Z,9.40
2022-09-29T20:42:53.939Z,9.90
2022-09-29T20:45:43.864Z,10.60
2022-09-29T20:48:34.515Z,10.00
2022-09-29T20:51:25.435Z,10.00
2022-09-29T20:54:15.615Z,10.80
2022-09-29T20:57:05.752Z,10.30
2022-09-29T20:59:55.880Z,11.00
2022-09-29T21:02:45.945Z,10.70
2022-09-29T21:05:35.956Z,11.50
2022-09-29T21:08:27.468Z,11.50
2022-09-29T21:11:17.388Z,11.60
2022-09-29T21:14:08.810Z,11.60
2022-09-29T21:16:58.696Z,11.90
2022-09-29T21:19:48.724Z,11.50
2022-09-29T21:22:38.640Z,12.10
2022-09-29T21:25:31.293Z,12.60
2022-09-29T21:28:21.239Z,12.30
2022-09-29T21:31:13.585Z,12.30
2022-09-29T21:34:07.035Z,13.40
2022-09-29T21:36:57.094Z,13.00
2022-09-29T21:39:47.046Z,13.30
2022-09-29T21:42:37.471Z,14.70
2022-09-29T21:45:27.387Z,14.00
2022-09-29T21:48:17.416Z,13.90
2022-09-29T21:51:09.333Z,13.70
2022-09-29T21:54:02.721Z,14.60
2022-09-29T21:56:52.782Z,14.30
2022-09-29T21:59:46.405Z,14.90
2022-09-29T22:02:36.720Z,13.80
2022-09-29T22:05:26.947Z,14.60
2022-09-29T22:08:17.199Z,14.30
2022-09-29T22:11:07.577Z,14.60
2022-09-29T22:13:58.992Z,14.20
2022-09-29T22:16:49.025Z,15.40
2022-09-29T22:19:39.369Z,14.30
2022-09-29T22:22:29.526Z,14.40
2022-09-29T22:25:19.468Z,13.30
2022-09-29T22:28:09.625Z,14.20
2022-09-29T22:31:09.265Z,15.00
2022-09-29T22:34:02.115Z,15.30
2022-09-29T22:36:52.201Z,14.40
2022-09-29T22:39:42.091Z,14.30
2022-09-29T22:42:32.334Z,13.90
2022-09-29T22:45:22.299Z,14.90
2022-09-29T22:48:12.339Z,14.70
2022-09-29T22:51:02.487Z,14.30
2022-09-29T22:53:52.741Z,13.80
2022-09-29T22:56:42.773Z,13.60
2022-09-29T22:59:33.066Z,13.60
2022-09-29T23:02:23.167Z,14.20
2022-09-29T23:05:13.213Z,14.20
2022-09-29T23:08:03.581Z,13.70
2022-09-29T23:10:55.472Z,12.80
2022-09-29T23:13:45.523Z,13.40
2022-09-29T23:16:35.682Z,13.60
2022-09-29T23:19:25.709Z,13.00
2022-09-29T23:22:16.025Z,14.10
2022-09-29T23:25:07.681Z,13.40
2022-09-29T23:27:58.198Z,13.50
2022-09-29T23:30:48.227Z,13.50
2022-09-29T23:33:38.801Z,13.10
2022-09-29T23:36:30.273Z,12.70
2022-09-29T23:39:20.462Z,12.10
2022-09-29T23:42:12.913Z,12.40
2022-09-29T23:45:03.413Z,12.30
2022-09-29T23:47:54.257Z,11.60
2022-09-29T23:50:44.798Z,12.00
2022-09-29T23:53:35.032Z,12.30
2022-09-29T23:56:25.502Z,12.40
2022-09-29T23:59:15.956Z,12.40
